createdAt,value
2023-01-19T00:01:19.535Z,93804.16
2023-01-19T00:03:45.945Z,93808.84
2023-01-19T00:06:12.591Z,93809.19
2023-01-19T00:08:39.622Z,93803.69
2023-01-19T00:11:06.002Z,93810.94
2023-01-19T00:13:32.387Z,93798.28
2023-01-19T00:15:58.965Z,93809.38
2023-01-19T00:18:25.456Z,93802.16
2023-01-19T00:20:51.972Z,93803.31
2023-01-19T00:23:19.488Z,93799.69
2023-01-19T00:25:46.113Z,93802.06
2023-01-19T00:28:12.752Z,93806.25
2023-01-19T00:30:40.751Z,93813.06
2023-01-19T00:33:07.542Z,93811.91
2023-01-19T00:35:35.967Z,93819.41
2023-01-19T00:38:03.173Z,93816.88
2023-01-19T00:40:29.577Z,93810.16
2023-01-19T00:42:56.617Z,93810.25
2023-01-19T00:45:23.540Z,93807.09
2023-01-19T00:47:49.913Z,93810.50
2023-01-19T00:50:16.291Z,93818.53
2023-01-19T00:52:42.708Z,93817.13
2023-01-19T00:55:09.181Z,93822.84
2023-01-19T00:57:35.598Z,93813.09
2023-01-19T01:00:05.343Z,93811.69
2023-01-19T01:02:33.349Z,93819.06
2023-01-19T01:05:00.183Z,93818.97
2023-01-19T01:07:28.649Z,93816.97
2023-01-19T01:09:55.042Z,93813.09
2023-01-19T01:12:21.443Z,93811.88
2023-01-19T01:14:48.013Z,93814.19
2023-01-19T01:17:14.984Z,93824.13
2023-01-19T01:19:42.044Z,93821.88
2023-01-19T01:22:08.379Z,93836.94
2023-01-19T01:24:35.651Z,93839.63
2023-01-19T01:27:02.043Z,93835.19
2023-01-19T01:29:28.401Z,93841.97
2023-01-19T01:31:57.312Z,93849.22
2023-01-19T01:34:23.745Z,93848.97
2023-01-19T01:36:52.518Z,93845.91
2023-01-19T01:39:19.131Z,93853.63
2023-01-19T01:41:45.684Z,93854.22
2023-01-19T01:44:13.733Z,93855.69
2023-01-19T01:46:41.120Z,93864.22
2023-01-19T01:49:07.458Z,93856.28
2023-01-19T01:51:34.035Z,93862.84
2023-01-19T01:54:00.423Z,93866.88
2023-01-19T01:56:27.512Z,93869.44
2023-01-19T01:58:53.917Z,93864.41
2023-01-19T02:01:20.419Z,93869.69
2023-01-19T02:03:47.069Z,93861.59
2023-01-19T02:06:13.409Z,93865.72
2023-01-19T02:08:39.793Z,93868.84
2023-01-19T02:11:06.153Z,93864.00
2023-01-19T02:13:32.609Z,93867.91
2023-01-19T02:15:58.992Z,93861.94
2023-01-19T02:18:25.373Z,93866.56
2023-01-19T02:20:51.755Z,93866.91
2023-01-19T02:23:18.079Z,93869.25
2023-01-19T02:25:44.452Z,93866.50
2023-01-19T02:28:10.825Z,93865.84
2023-01-19T02:30:37.704Z,93861.38
2023-01-19T02:33:04.108Z,93868.41
2023-01-19T02:35:30.441Z,93865.53
2023-01-19T02:37:56.880Z,93863.88
2023-01-19T02:40:23.430Z,93864.19
2023-01-19T02:42:50.053Z,93872.72
2023-01-19T02:45:16.393Z,93872.34
2023-01-19T02:47:42.732Z,93873.56
2023-01-19T02:50:09.116Z,93882.41
2023-01-19T02:52:35.480Z,93876.13
2023-01-19T02:55:02.876Z,93877.06
2023-01-19T02:57:29.225Z,93882.63
2023-01-19T02:59:55.563Z,93877.88
2023-01-19T03:02:22.245Z,93879.03
2023-01-19T03:04:48.872Z,93883.63
2023-01-19T03:07:15.255Z,93884.47
2023-01-19T03:09:41.652Z,93877.03
2023-01-19T03:12:08.011Z,93876.31
2023-01-19T03:14:34.342Z,93879.13
2023-01-19T03:17:00.684Z,93887.97
2023-01-19T03:19:28.068Z,93882.94
2023-01-19T03:21:54.451Z,93885.38
2023-01-19T03:24:20.796Z,93883.84
2023-01-19T03:26:47.481Z,93883.94
2023-01-19T03:29:15.049Z,93891.47
2023-01-19T03:31:42.505Z,93892.25
2023-01-19T03:34:10.574Z,93888.69
2023-01-19T03:36:36.910Z,93891.47
2023-01-19T03:39:03.555Z,93889.09
2023-01-19T03:41:29.921Z,93895.34
2023-01-19T03:43:56.302Z,93896.28
2023-01-19T03:46:22.699Z,93896.59
2023-01-19T03:48:50.155Z,93897.41
2023-01-19T03:51:16.567Z,93901.28
2023-01-19T03:53:43.024Z,93896.38
2023-01-19T03:56:09.390Z,93901.09
2023-01-19T03:58:35.768Z,93903.69
2023-01-19T04:01:02.198Z,93905.31
2023-01-19T04:03:29.111Z,93907.16
2023-01-19T04:05:55.477Z,93909.72
2023-01-19T04:08:22.885Z,93912.97
2023-01-19T04:10:49.344Z,93916.06
2023-01-19T04:13:15.687Z,93915.88
2023-01-19T04:15:42.633Z,93916.66
2023-01-19T04:18:11.557Z,93918.00
2023-01-19T04:20:37.948Z,93915.44
2023-01-19T04:23:04.599Z,93913.84
2023-01-19T04:25:31.009Z,93923.19
2023-01-19T04:27:57.523Z,93919.41
2023-01-19T04:30:24.530Z,93921.50
2023-01-19T04:32:50.907Z,93921.94
2023-01-19T04:35:17.244Z,93921.47
2023-01-19T04:37:44.616Z,93922.38
2023-01-19T04:40:11.120Z,93921.63
2023-01-19T04:42:37.600Z,93920.00
2023-01-19T04:45:03.982Z,93924.03
2023-01-19T04:47:30.329Z,93925.47
2023-01-19T04:50:01.307Z,93925.28
2023-01-19T04:52:27.633Z,93922.19
2023-01-19T04:54:54.074Z,93922.69
2023-01-19T04:57:20.461Z,93918.09
2023-01-19T04:59:49.406Z,93911.75
2023-01-19T05:02:16.833Z,93915.03
2023-01-19T05:04:43.395Z,93913.41
2023-01-19T05:07:09.770Z,93917.13
2023-01-19T05:09:36.151Z,93923.16
2023-01-19T05:12:02.616Z,93925.38
2023-01-19T05:14:30.238Z,93923.56
2023-01-19T05:17:03.273Z,93924.69
2023-01-19T05:19:29.723Z,93931.47
2023-01-19T05:21:56.464Z,93923.78
2023-01-19T05:24:25.300Z,93927.16
2023-01-19T05:26:51.788Z,93934.56
2023-01-19T05:29:20.423Z,93938.63
2023-01-19T05:31:47.047Z,93935.69
2023-01-19T05:34:13.440Z,93926.91
2023-01-19T05:36:39.880Z,93934.81
2023-01-19T05:39:06.266Z,93929.84
2023-01-19T05:41:33.049Z,93928.38
2023-01-19T05:43:59.402Z,93937.09
2023-01-19T05:46:25.989Z,93931.16
2023-01-19T05:48:52.581Z,93929.38
2023-01-19T05:51:19.302Z,93936.81
2023-01-19T05:53:45.679Z,93930.84
2023-01-19T05:56:12.368Z,93936.91
2023-01-19T05:58:38.750Z,93931.09
2023-01-19T06:01:05.164Z,93940.97
2023-01-19T06:03:31.591Z,93945.91
2023-01-19T06:05:57.994Z,93948.97
2023-01-19T06:08:24.385Z,93956.06
2023-01-19T06:10:50.781Z,93970.56
2023-01-19T06:13:17.283Z,93963.88
2023-01-19T06:15:43.935Z,93967.72
2023-01-19T06:18:10.586Z,93969.19
2023-01-19T06:20:36.951Z,93960.00
2023-01-19T06:23:03.852Z,93966.59
2023-01-19T06:25:30.400Z,93964.50
2023-01-19T06:27:56.736Z,93967.19
2023-01-19T06:30:23.210Z,93967.44
2023-01-19T06:32:49.587Z,93971.41
2023-01-19T06:35:16.231Z,93959.69
2023-01-19T06:37:42.747Z,93971.34
2023-01-19T06:40:09.153Z,93976.75
2023-01-19T06:42:35.531Z,93979.50
2023-01-19T06:45:01.883Z,93982.34
2023-01-19T06:47:28.236Z,93980.63
2023-01-19T06:49:55.804Z,93985.19
2023-01-19T06:52:22.232Z,93984.84
2023-01-19T06:54:49.783Z,93994.72
2023-01-19T06:57:16.618Z,93982.63
2023-01-19T06:59:43.912Z,93994.72
2023-01-19T07:02:27.620Z,93999.97
2023-01-19T07:04:55.054Z,93999.03
2023-01-19T07:07:23.773Z,93994.00
2023-01-19T07:09:51.529Z,94000.50
2023-01-19T07:12:20.864Z,93997.75
2023-01-19T07:14:47.358Z,93998.75
2023-01-19T07:17:13.776Z,94006.00
2023-01-19T07:19:40.340Z,94013.16
2023-01-19T07:22:06.756Z,94005.81
2023-01-19T07:24:33.165Z,94012.78
2023-01-19T07:26:59.659Z,94015.44
2023-01-19T07:29:28.389Z,94010.94
2023-01-19T07:31:55.902Z,94020.38
2023-01-19T07:34:24.856Z,94014.97
2023-01-19T07:36:51.270Z,94013.88
2023-01-19T07:39:17.867Z,94008.75
2023-01-19T07:41:44.246Z,94016.34
2023-01-19T07:44:10.662Z,94012.97
2023-01-19T07:46:37.056Z,94015.72
2023-01-19T07:49:03.543Z,94020.13
2023-01-19T07:51:29.992Z,94027.59
2023-01-19T07:53:56.445Z,94024.88
2023-01-19T07:56:23.659Z,94032.84
2023-01-19T07:58:50.100Z,94035.88
2023-01-19T08:01:16.948Z,94032.69
2023-01-19T08:03:43.405Z,94031.75
2023-01-19T08:06:09.798Z,94029.38
2023-01-19T08:08:36.256Z,94020.94
2023-01-19T08:11:02.724Z,94024.22
2023-01-19T08:13:29.093Z,94032.34
2023-01-19T08:15:55.497Z,94036.84
2023-01-19T08:18:21.920Z,94037.50
2023-01-19T08:20:48.333Z,94044.47
2023-01-19T08:23:14.938Z,94050.44
2023-01-19T08:25:41.493Z,94049.16
2023-01-19T08:28:08.215Z,94050.41
2023-01-19T08:30:34.574Z,94054.16
2023-01-19T08:33:01.323Z,94063.78
2023-01-19T08:35:27.956Z,94061.91
2023-01-19T08:37:54.524Z,94065.41
2023-01-19T08:40:21.907Z,94070.25
2023-01-19T08:42:48.741Z,94077.88
2023-01-19T08:45:15.141Z,94074.91
2023-01-19T08:47:41.528Z,94067.88
2023-01-19T08:50:07.952Z,94077.38
2023-01-19T08:52:34.371Z,94072.91
2023-01-19T08:55:02.741Z,94071.50
2023-01-19T08:57:29.121Z,94070.72
2023-01-19T08:59:55.676Z,94074.50
2023-01-19T09:02:22.742Z,94077.72
2023-01-19T09:04:49.426Z,94076.81
2023-01-19T09:07:15.811Z,94079.16
2023-01-19T09:09:42.192Z,94079.47
2023-01-19T09:12:08.543Z,94068.31
2023-01-19T09:14:34.905Z,94066.50
2023-01-19T09:17:01.353Z,94069.09
2023-01-19T09:19:27.815Z,94072.94
2023-01-19T09:21:54.161Z,94071.94
2023-01-19T09:24:20.685Z,94074.91
2023-01-19T09:26:49.152Z,94078.00
2023-01-19T09:29:15.502Z,94077.44
2023-01-19T09:31:41.947Z,94076.94
2023-01-19T09:34:08.574Z,94075.31
2023-01-19T09:36:34.918Z,94071.13
2023-01-19T09:39:02.332Z,94075.94
2023-01-19T09:41:28.735Z,94084.06
2023-01-19T09:43:55.219Z,94088.78
2023-01-19T09:46:21.661Z,94079.94
2023-01-19T09:48:48.195Z,94080.66
2023-01-19T09:51:14.584Z,94076.38
2023-01-19T09:53:40.975Z,94080.13
2023-01-19T09:56:07.567Z,94082.56
2023-01-19T09:58:33.923Z,94084.03
2023-01-19T10:01:00.442Z,94082.00
2023-01-19T10:03:26.932Z,94082.63
2023-01-19T10:05:53.596Z,94077.84
2023-01-19T10:08:22.137Z,94081.59
2023-01-19T10:10:48.485Z,94077.53
2023-01-19T10:13:14.856Z,94071.78
2023-01-19T10:15:41.204Z,94077.34
2023-01-19T10:18:07.581Z,94069.66
2023-01-19T10:20:34.933Z,94071.63
2023-01-19T10:23:01.556Z,94062.81
2023-01-19T10:25:28.164Z,94062.88
2023-01-19T10:27:54.582Z,94067.28
2023-01-19T10:30:21.128Z,94064.13
2023-01-19T10:32:47.488Z,94063.75
2023-01-19T13:55:29.702Z,93934.75
2023-01-19T14:03:37.914Z,93933.69
2023-01-19T14:06:22.900Z,93938.00
2023-01-19T14:12:02.191Z,93938.16
2023-01-19T16:05:07.384Z,93902.91
2023-01-19T16:07:38.553Z,93900.13
2023-01-19T16:18:41.021Z,93893.19
2023-01-19T16:21:07.788Z,93890.44
2023-01-19T16:37:30.610Z,93890.72
2023-01-19T16:48:22.727Z,93882.16
2023-01-19T16:53:30.749Z,93874.94
2023-01-19T17:24:26.907Z,93875.44
2023-01-19T17:26:53.253Z,93866.53
2023-01-19T17:29:19.586Z,93868.78
2023-01-19T17:31:48.990Z,93874.31
2023-01-19T17:34:15.477Z,93870.78
2023-01-19T17:36:42.004Z,93873.97
2023-01-19T17:39:08.357Z,93875.72
2023-01-19T17:41:34.690Z,93883.22
2023-01-19T17:44:01.092Z,93880.59
2023-01-19T17:46:27.835Z,93876.84
2023-01-19T17:48:54.228Z,93875.06
2023-01-19T17:51:20.892Z,93869.00
2023-01-19T17:53:47.764Z,93870.75
2023-01-19T17:56:14.167Z,93875.91
2023-01-19T17:58:40.553Z,93872.50
2023-01-19T18:01:06.993Z,93869.31
2023-01-19T18:03:33.590Z,93871.91
2023-01-19T18:06:00.023Z,93865.22
2023-01-19T18:08:26.452Z,93871.66
2023-01-19T18:10:53.229Z,93865.41
2023-01-19T18:13:19.611Z,93857.78
2023-01-19T18:15:46.027Z,93860.38
2023-01-19T18:18:12.503Z,93858.75
2023-01-19T18:20:38.977Z,93856.16
2023-01-19T18:23:06.811Z,93848.66
2023-01-19T18:25:33.173Z,93855.09
2023-01-19T18:27:59.528Z,93845.56
2023-01-19T18:30:28.181Z,93849.03
2023-01-19T18:32:55.012Z,93842.31
2023-01-19T18:35:21.610Z,93846.03
2023-01-19T18:37:48.331Z,93849.38
2023-01-19T18:40:15.499Z,93844.66
2023-01-19T18:42:42.955Z,93842.31
2023-01-19T18:45:09.464Z,93841.38
2023-01-19T18:47:36.586Z,93843.03
2023-01-19T18:50:02.941Z,93842.31
2023-01-19T18:52:31.693Z,93836.66
2023-01-19T18:55:01.109Z,93827.44
2023-01-19T18:57:27.791Z,93837.59
2023-01-19T18:59:54.462Z,93837.34
2023-01-19T19:02:21.939Z,93831.91
2023-01-19T19:04:55.506Z,93831.03
2023-01-19T19:07:22.906Z,93831.22
2023-01-19T19:09:49.807Z,93838.13
2023-01-19T19:12:18.325Z,93828.78
2023-01-19T19:14:45.754Z,93825.59
2023-01-19T19:17:14.240Z,93825.69
2023-01-19T19:19:40.604Z,93830.94
2023-01-19T19:22:06.951Z,93825.41
2023-01-19T19:24:34.605Z,93824.66
2023-01-19T19:27:00.967Z,93829.69
2023-01-19T19:29:27.696Z,93829.31
2023-01-19T19:31:55.427Z,93821.81
2023-01-19T19:34:30.257Z,93829.34
2023-01-19T19:36:56.947Z,93820.50
2023-01-19T19:39:23.382Z,93823.59
2023-01-19T19:41:50.009Z,93820.72
2023-01-19T19:44:18.490Z,93820.22
2023-01-19T19:46:45.731Z,93817.72
2023-01-19T19:49:12.094Z,93822.97
2023-01-19T19:51:40.481Z,93819.56
2023-01-19T19:54:06.885Z,93824.94
2023-01-19T19:56:33.341Z,93836.34
2023-01-19T19:58:59.880Z,93833.34
2023-01-19T20:01:32.930Z,93832.44
2023-01-19T20:04:00.037Z,93836.34
2023-01-19T20:06:26.726Z,93843.13
2023-01-19T20:08:55.431Z,93839.41
2023-01-19T20:11:21.887Z,93838.16
2023-01-19T20:13:48.307Z,93838.38
2023-01-19T20:16:14.687Z,93843.50
2023-01-19T20:18:43.105Z,93845.34
2023-01-19T20:21:11.721Z,93845.31
2023-01-19T20:23:38.105Z,93843.88
2023-01-19T20:26:04.496Z,93845.31
2023-01-19T20:28:30.979Z,93854.47
2023-01-19T20:30:57.364Z,93850.78
2023-01-19T20:33:23.851Z,93851.50
2023-01-19T20:35:50.325Z,93849.16
2023-01-19T20:38:16.743Z,93850.28
2023-01-19T20:40:43.735Z,93845.09
2023-01-19T20:43:10.539Z,93849.50
2023-01-19T20:45:37.287Z,93861.34
2023-01-19T20:48:03.989Z,93857.91
2023-01-19T20:50:30.381Z,93857.56
2023-01-19T20:52:56.768Z,93863.09
2023-01-19T20:55:23.160Z,93862.47
2023-01-19T20:57:49.831Z,93861.63
2023-01-19T21:00:16.283Z,93861.44
2023-01-19T21:02:42.742Z,93867.00
2023-01-19T21:05:10.167Z,93864.16
2023-01-19T21:07:37.089Z,93864.88
2023-01-19T21:10:03.696Z,93862.50
2023-01-19T21:12:30.364Z,93869.66
2023-01-19T21:15:01.043Z,93875.19
2023-01-19T21:17:27.637Z,93869.44
2023-01-19T21:19:56.055Z,93877.41
2023-01-19T21:22:22.494Z,93878.34
2023-01-19T21:24:48.890Z,93879.47
2023-01-19T21:27:16.248Z,93880.63
2023-01-19T21:29:42.667Z,93883.50
2023-01-19T21:32:09.011Z,93882.78
2023-01-19T21:34:35.422Z,93894.53
2023-01-19T21:37:01.919Z,93891.78
2023-01-19T21:39:28.312Z,93895.28
2023-01-19T21:41:54.727Z,93902.13
2023-01-19T21:44:21.338Z,93901.25
2023-01-19T21:46:47.698Z,93907.16
2023-01-19T21:49:15.450Z,93902.03
2023-01-19T21:51:41.812Z,93910.47
2023-01-19T21:54:08.491Z,93912.31
2023-01-19T21:56:38.024Z,93906.53
2023-01-19T21:59:04.390Z,93910.66
2023-01-19T22:01:30.834Z,93913.97
2023-01-19T22:03:57.733Z,93923.59
2023-01-19T22:06:24.081Z,93924.50
2023-01-19T22:08:50.422Z,93929.53
2023-01-19T22:11:16.766Z,93927.41
2023-01-19T22:13:45.313Z,93939.63
2023-01-19T22:16:11.816Z,93938.16
2023-01-19T22:18:38.245Z,93943.00
2023-01-19T22:21:04.625Z,93947.09
2023-01-19T22:23:31.075Z,93953.16
2023-01-19T22:25:57.436Z,93946.38
2023-01-19T22:28:23.812Z,93946.38
2023-01-19T22:30:51.294Z,93941.59
2023-01-19T22:33:18.077Z,93962.69
2023-01-19T22:35:46.724Z,93951.84
2023-01-19T22:38:13.072Z,93955.69
2023-01-19T22:40:39.442Z,93954.38
2023-01-19T22:43:05.872Z,93958.94
2023-01-19T22:45:32.720Z,93958.38
2023-01-19T22:47:59.187Z,93965.16
2023-01-19T22:50:33.857Z,93963.16
2023-01-19T22:53:00.205Z,93960.44
2023-01-19T22:55:28.863Z,93964.81
2023-01-19T22:57:56.101Z,93972.25
2023-01-19T23:00:22.607Z,93969.28
2023-01-19T23:02:49.191Z,93973.00
2023-01-19T23:05:16.110Z,93969.97
2023-01-19T23:07:42.737Z,93987.50
2023-01-19T23:10:09.554Z,93983.53
2023-01-19T23:12:35.904Z,93976.94
2023-01-19T23:15:02.298Z,93971.00
2023-01-19T23:17:28.910Z,93977.53
2023-01-19T23:20:01.697Z,93977.66
2023-01-19T23:22:28.117Z,93968.34
2023-01-19T23:24:55.563Z,93971.75
2023-01-19T23:27:21.955Z,93965.88
2023-01-19T23:29:55.848Z,93973.28
2023-01-19T23:32:23.219Z,93968.00
2023-01-19T23:34:49.653Z,93979.72
2023-01-19T23:37:18.240Z,93967.47
2023-01-19T23:39:46.635Z,93962.31
2023-01-19T23:42:13.027Z,93973.03
2023-01-19T23:44:39.685Z,93978.06
2023-01-19T23:47:08.100Z,93980.56
2023-01-19T23:49:34.449Z,93987.97
2023-01-19T23:52:01.007Z,93980.47
2023-01-19T23:54:27.672Z,93979.88
2023-01-19T23:56:54.229Z,93987.66
2023-01-19T23:59:22.943Z,93988.50
